createdAt,value
2022-12-05T00:00:29.152Z,99
2022-12-05T00:01:36.263Z,99
2022-12-05T00:02:42.814Z,99
2022-12-05T00:03:50.025Z,99
2022-12-05T00:04:57.004Z,99
2022-12-05T00:06:04.142Z,99
2022-12-05T00:07:11.215Z,99
2022-12-05T00:08:17.926Z,99
2022-12-05T00:09:24.950Z,99
2022-12-05T00:10:32.053Z,99
2022-12-05T00:11:39.121Z,99
2022-12-05T00:12:46.270Z,99
2022-12-05T00:13:52.964Z,99
2022-12-05T00:14:59.915Z,99
2022-12-05T00:16:07.115Z,99
2022-12-05T00:17:14.165Z,99
2022-12-05T00:18:21.252Z,99
2022-12-05T00:19:27.879Z,99
2022-12-05T00:20:34.972Z,99
2022-12-05T00:21:42.058Z,99
2022-12-05T00:22:49.108Z,99
2022-12-05T00:23:56.270Z,99
2022-12-05T00:25:02.930Z,99
2022-12-05T00:26:09.943Z,99
2022-12-05T00:27:17.055Z,99
2022-12-05T00:28:24.180Z,99
2022-12-05T00:29:31.358Z,99
2022-12-05T00:30:37.876Z,99
2022-12-05T00:31:45.053Z,99
2022-12-05T00:32:52.065Z,99
2022-12-05T00:33:59.191Z,99
2022-12-05T00:36:12.879Z,99
2022-12-05T00:37:19.942Z,99
2022-12-05T00:38:27.039Z,99
2022-12-05T00:39:34.181Z,99
2022-12-05T00:40:41.279Z,99
2022-12-05T00:41:47.902Z,99
2022-12-05T00:42:54.966Z,99
2022-12-05T00:44:02.067Z,99
2022-12-05T00:45:09.239Z,99
2022-12-05T00:46:16.382Z,99
2022-12-05T00:47:22.942Z,99
2022-12-05T00:48:29.989Z,99
2022-12-05T00:49:37.082Z,99
2022-12-05T00:50:44.196Z,99
2022-12-05T00:51:51.348Z,99
2022-12-05T00:52:58.415Z,99
2022-12-05T00:54:05.008Z,99
2022-12-05T00:55:12.108Z,99
2022-12-05T00:56:19.240Z,99
2022-12-05T00:58:32.873Z,99
2022-12-05T00:59:39.990Z,99
2022-12-05T01:00:47.367Z,99
2022-12-05T01:01:54.283Z,99
2022-12-05T01:04:07.953Z,99
2022-12-05T01:05:15.005Z,99
2022-12-05T01:06:22.161Z,99
2022-12-05T01:07:29.362Z,100
2022-12-05T01:08:36.315Z,99
2022-12-05T01:09:42.941Z,99
2022-12-05T01:10:49.993Z,99
2022-12-05T01:11:57.142Z,99
2022-12-05T01:13:04.223Z,99
2022-12-05T01:14:11.316Z,99
2022-12-05T01:15:17.902Z,99
2022-12-05T01:17:32.133Z,99
2022-12-05T01:18:39.204Z,99
2022-12-05T01:19:46.321Z,99
2022-12-05T01:20:52.909Z,99
2022-12-05T01:22:00.049Z,99
2022-12-05T01:23:07.103Z,99
2022-12-05T01:24:14.314Z,99
2022-12-05T01:25:21.374Z,98
2022-12-05T01:26:27.948Z,98
2022-12-05T01:27:35.026Z,98
2022-12-05T01:28:42.213Z,99
2022-12-05T01:29:49.207Z,99
2022-12-05T01:30:56.359Z,99
2022-12-05T01:32:03.149Z,99
2022-12-05T01:33:10.002Z,99
2022-12-05T01:34:18.166Z,99
2022-12-05T01:35:24.270Z,99
2022-12-05T01:36:31.378Z,99
2022-12-05T01:37:37.910Z,99
2022-12-05T01:38:45.086Z,99
2022-12-05T01:39:52.683Z,99
2022-12-05T01:40:59.222Z,99
2022-12-05T01:42:06.403Z,99
2022-12-05T01:43:12.972Z,99
2022-12-05T01:44:20.040Z,99
2022-12-05T01:45:27.151Z,99
2022-12-05T01:46:34.315Z,99
2022-12-05T01:47:41.465Z,99
2022-12-05T01:48:47.938Z,99
2022-12-05T01:49:55.348Z,99
2022-12-05T01:51:02.167Z,99
2022-12-05T01:52:09.307Z,99
2022-12-05T01:53:16.370Z,99
2022-12-05T01:54:23.015Z,99
2022-12-05T01:55:30.038Z,99
2022-12-05T01:56:37.222Z,99
2022-12-05T01:58:51.376Z,98
2022-12-05T01:59:58.202Z,99
2022-12-05T02:02:12.311Z,99
2022-12-05T02:03:19.364Z,98
2022-12-05T02:04:25.870Z,98
2022-12-05T02:05:33.002Z,98
2022-12-05T02:06:40.117Z,98
2022-12-05T02:07:47.242Z,98
2022-12-05T02:08:54.298Z,98
2022-12-05T02:10:00.884Z,99
2022-12-05T02:11:07.983Z,99
2022-12-05T02:12:15.084Z,98
2022-12-05T02:13:22.215Z,98
2022-12-05T02:14:29.316Z,98
2022-12-05T02:15:36.901Z,98
2022-12-05T02:16:43.102Z,98
2022-12-05T02:17:50.101Z,98
2022-12-05T02:18:57.187Z,99
2022-12-05T02:20:04.343Z,99
2022-12-05T02:21:10.940Z,99
2022-12-05T02:22:17.978Z,99
2022-12-05T02:23:25.110Z,99
2022-12-05T02:24:32.207Z,99
2022-12-05T02:25:39.290Z,99
2022-12-05T02:26:45.909Z,99
2022-12-05T02:27:53.029Z,99
2022-12-05T02:29:00.162Z,99
2022-12-05T02:30:07.198Z,99
2022-12-05T02:32:20.968Z,99
2022-12-05T02:33:28.011Z,99
2022-12-05T02:34:35.120Z,99
2022-12-05T02:35:43.441Z,98
2022-12-05T02:36:49.375Z,99
2022-12-05T02:37:55.930Z,99
2022-12-05T02:40:10.158Z,98
2022-12-05T02:41:17.231Z,95
2022-12-05T02:42:24.371Z,98
2022-12-05T02:43:30.960Z,99
2022-12-05T02:44:38.010Z,98
2022-12-05T02:45:45.283Z,98
2022-12-05T02:46:52.311Z,98
2022-12-05T02:47:59.330Z,98
2022-12-05T02:49:05.940Z,98
2022-12-05T02:50:13.063Z,95
2022-12-05T02:51:20.204Z,98
2022-12-05T02:52:27.230Z,98
2022-12-05T02:53:34.352Z,98
2022-12-05T02:54:40.968Z,95
2022-12-05T02:55:48.017Z,98
2022-12-05T02:56:55.230Z,98
2022-12-05T02:58:02.292Z,100
2022-12-05T02:59:09.340Z,98
2022-12-05T03:00:15.954Z,98
2022-12-05T03:01:23.241Z,98
2022-12-05T03:02:30.123Z,98
2022-12-05T03:03:37.257Z,98
2022-12-05T03:05:50.951Z,98
2022-12-05T03:06:58.151Z,98
2022-12-05T03:08:05.769Z,98
2022-12-05T03:09:12.275Z,100
2022-12-05T03:10:19.376Z,98
2022-12-05T03:11:26.026Z,98
2022-12-05T03:12:33.069Z,95
2022-12-05T03:13:40.163Z,98
2022-12-05T03:14:47.240Z,98
2022-12-05T03:15:54.348Z,98
2022-12-05T03:17:01.066Z,98
2022-12-05T03:18:08.055Z,98
2022-12-05T03:19:15.181Z,98
2022-12-05T03:21:29.421Z,98
2022-12-05T03:22:35.981Z,100
2022-12-05T03:23:43.093Z,98
2022-12-05T03:24:50.173Z,100
2022-12-05T03:25:57.260Z,100
2022-12-05T03:27:04.598Z,100
2022-12-05T03:28:10.968Z,100
2022-12-05T03:29:18.086Z,100
2022-12-05T03:30:25.217Z,100
2022-12-05T03:31:32.308Z,98
2022-12-05T03:32:39.420Z,98
2022-12-05T03:33:45.990Z,100
2022-12-05T03:34:53.119Z,98
2022-12-05T03:36:00.217Z,98
2022-12-05T03:37:07.358Z,98
2022-12-05T03:38:13.927Z,95
2022-12-05T03:39:21.010Z,95
2022-12-05T03:40:28.082Z,95
2022-12-05T03:41:35.268Z,95
2022-12-05T03:42:42.311Z,94
2022-12-05T03:43:49.422Z,95
2022-12-05T03:44:56.017Z,95
2022-12-05T03:46:03.260Z,95
2022-12-05T03:47:10.232Z,98
2022-12-05T03:48:17.303Z,95
2022-12-05T03:49:26.969Z,95
2022-12-05T03:50:31.071Z,95
2022-12-05T03:51:38.205Z,95
2022-12-05T03:53:17.499Z,95
2022-12-05T03:53:52.328Z,94
2022-12-05T03:54:59.420Z,95
2022-12-05T03:56:06.060Z,95
2022-12-05T03:57:13.227Z,95
2022-12-05T03:58:20.218Z,95
2022-12-05T04:00:34.460Z,95
2022-12-05T04:02:48.162Z,95
2022-12-05T04:03:55.437Z,95
2022-12-05T04:05:02.352Z,95
2022-12-05T04:06:08.909Z,98
2022-12-05T04:07:16.133Z,95
2022-12-05T04:09:30.252Z,95
2022-12-05T04:10:37.324Z,98
2022-12-05T04:11:43.987Z,100
2022-12-05T04:12:51.062Z,98
2022-12-05T04:13:58.170Z,100
2022-12-05T04:15:05.301Z,98
2022-12-05T04:16:12.466Z,98
2022-12-05T04:17:18.982Z,98
2022-12-05T04:18:26.031Z,100
2022-12-05T04:19:34.232Z,98
2022-12-05T04:20:40.275Z,98
2022-12-05T04:21:47.358Z,100
2022-12-05T04:22:53.968Z,98
2022-12-05T04:24:01.057Z,98
2022-12-05T04:25:08.174Z,100
2022-12-05T04:26:15.298Z,100
2022-12-05T04:27:22.441Z,98
2022-12-05T04:28:28.940Z,98
2022-12-05T04:29:36.059Z,95
2022-12-05T04:30:43.374Z,95
2022-12-05T04:31:50.349Z,95
2022-12-05T04:32:57.366Z,95
2022-12-05T04:34:04.481Z,95
2022-12-05T04:35:11.128Z,98
2022-12-05T04:36:18.700Z,98
2022-12-05T04:37:25.327Z,95
2022-12-05T04:38:32.394Z,95
2022-12-05T04:39:38.966Z,95
2022-12-05T04:40:46.260Z,95
2022-12-05T04:41:53.272Z,95
2022-12-05T04:44:07.403Z,95
2022-12-05T04:45:14.002Z,95
2022-12-05T04:46:21.193Z,95
2022-12-05T04:47:28.161Z,95
2022-12-05T04:48:35.320Z,95
2022-12-05T04:49:42.425Z,94
2022-12-05T04:50:48.979Z,95
2022-12-05T04:51:56.162Z,95
2022-12-05T04:53:03.224Z,94
2022-12-05T04:54:10.321Z,95
2022-12-05T04:55:17.384Z,94
2022-12-05T04:56:24.021Z,95
2022-12-05T04:57:31.130Z,95
2022-12-05T04:58:38.188Z,95
2022-12-05T04:59:45.339Z,95
2022-12-05T05:00:51.912Z,94
2022-12-05T05:01:59.156Z,94
2022-12-05T05:03:06.253Z,96
2022-12-05T05:04:13.220Z,96
2022-12-05T05:05:20.328Z,96
2022-12-05T05:06:27.479Z,96
2022-12-05T05:07:34.112Z,96
2022-12-05T05:08:41.135Z,96
2022-12-05T05:09:48.198Z,96
2022-12-05T05:10:55.351Z,96
2022-12-05T05:13:09.042Z,96
2022-12-05T05:14:16.150Z,95
2022-12-05T05:15:23.249Z,95
2022-12-05T05:16:30.438Z,95
2022-12-05T05:17:37.439Z,95
2022-12-05T05:18:44.041Z,96
2022-12-05T05:19:51.151Z,95
2022-12-05T05:20:58.226Z,95
2022-12-05T05:22:05.410Z,95
2022-12-05T05:23:12.473Z,95
2022-12-05T05:25:26.191Z,95
2022-12-05T05:26:33.249Z,95
2022-12-05T05:28:47.448Z,95
2022-12-05T05:29:54.052Z,95
2022-12-05T05:31:01.320Z,95
2022-12-05T05:32:08.325Z,94
2022-12-05T05:33:15.403Z,95
2022-12-05T05:34:22.462Z,94
2022-12-05T05:35:29.022Z,94
2022-12-05T05:36:36.228Z,94
2022-12-05T05:37:43.274Z,94
2022-12-05T05:38:50.380Z,94
2022-12-05T05:39:57.919Z,94
2022-12-05T05:41:04.051Z,94
2022-12-05T05:42:11.228Z,94
2022-12-05T05:43:18.273Z,94
2022-12-05T05:44:25.375Z,94
2022-12-05T05:45:32.503Z,94
2022-12-05T05:46:39.211Z,94
2022-12-05T05:47:46.184Z,94
2022-12-05T05:48:53.302Z,94
2022-12-05T05:50:00.967Z,94
2022-12-05T05:51:07.454Z,94
2022-12-05T05:52:14.141Z,94
2022-12-05T05:53:21.202Z,93
2022-12-05T05:54:28.283Z,94
2022-12-05T05:55:35.407Z,94
2022-12-05T05:56:42.594Z,94
2022-12-05T05:57:49.069Z,94
2022-12-05T05:58:56.199Z,94
2022-12-05T06:00:03.301Z,94
2022-12-05T06:01:10.417Z,94
2022-12-05T06:02:17.722Z,94
2022-12-05T06:03:24.245Z,94
2022-12-05T06:04:31.730Z,94
2022-12-05T06:06:45.491Z,93
2022-12-05T06:07:52.563Z,94
2022-12-05T06:08:59.087Z,94
2022-12-05T06:10:06.239Z,94
2022-12-05T06:11:13.334Z,94
2022-12-05T06:12:20.500Z,94
2022-12-05T06:13:27.484Z,94
2022-12-05T06:14:34.122Z,94
2022-12-05T06:16:48.550Z,94
2022-12-05T06:17:55.455Z,94
2022-12-05T06:19:02.574Z,94
2022-12-05T06:20:09.090Z,94
2022-12-05T06:21:16.649Z,94
2022-12-05T06:22:23.378Z,94
2022-12-05T06:23:29.874Z,94
2022-12-05T06:24:37.536Z,94
2022-12-05T06:25:44.130Z,94
2022-12-05T06:26:51.269Z,94
2022-12-05T06:27:58.329Z,94
2022-12-05T06:29:05.455Z,94
2022-12-05T06:30:12.708Z,94
2022-12-05T06:31:19.224Z,94
2022-12-05T06:32:26.249Z,94
2022-12-05T06:33:33.344Z,94
2022-12-05T06:34:40.482Z,94
2022-12-05T06:35:47.543Z,94
2022-12-05T06:36:54.211Z,93
2022-12-05T06:38:01.250Z,94
2022-12-05T06:39:08.357Z,94
2022-12-05T06:40:15.469Z,94
2022-12-05T06:41:22.592Z,94
2022-12-05T06:42:29.278Z,93
2022-12-05T06:43:36.260Z,93
2022-12-05T06:44:43.332Z,93
2022-12-05T06:45:50.523Z,93
2022-12-05T06:48:04.121Z,93
2022-12-05T06:49:11.268Z,94
2022-12-05T06:50:18.371Z,94
2022-12-05T06:51:25.475Z,94
2022-12-05T06:52:32.648Z,94
2022-12-05T06:53:39.138Z,94
2022-12-05T06:54:46.269Z,93
2022-12-05T06:57:00.555Z,94
2022-12-05T06:58:07.547Z,94
2022-12-05T06:59:14.177Z,94
2022-12-05T07:00:21.263Z,94
2022-12-05T07:01:28.398Z,94
2022-12-05T07:02:35.520Z,94
2022-12-05T07:03:42.612Z,94
2022-12-05T07:04:49.179Z,94
2022-12-05T07:05:56.298Z,94
2022-12-05T07:07:03.443Z,93
2022-12-05T07:08:10.634Z,93
2022-12-05T07:09:17.060Z,93
2022-12-05T07:10:24.209Z,93
2022-12-05T07:11:31.341Z,93
2022-12-05T07:12:38.358Z,93
2022-12-05T07:13:45.523Z,92
2022-12-05T07:14:52.104Z,93
2022-12-05T07:15:59.359Z,93
2022-12-05T07:17:06.409Z,93
2022-12-05T07:18:13.396Z,93
2022-12-05T07:20:43.131Z,94
2022-12-05T07:21:34.220Z,94
2022-12-05T07:22:41.327Z,94
2022-12-05T07:23:48.391Z,94
2022-12-05T07:24:55.504Z,94
2022-12-05T07:26:02.095Z,94
2022-12-05T07:27:09.243Z,94
2022-12-05T07:28:16.351Z,95
2022-12-05T07:29:23.418Z,94
2022-12-05T07:30:30.528Z,95
2022-12-05T07:31:37.286Z,95
2022-12-05T07:33:51.316Z,95
2022-12-05T07:34:58.391Z,95
2022-12-05T07:36:05.528Z,95
2022-12-05T07:37:12.720Z,95
2022-12-05T07:38:19.248Z,95
2022-12-05T07:39:26.336Z,95
2022-12-05T07:40:33.552Z,95
2022-12-05T07:41:40.564Z,95
2022-12-05T07:42:47.117Z,95
2022-12-05T07:43:54.265Z,95
2022-12-05T07:45:01.370Z,95
2022-12-05T07:46:08.001Z,96
2022-12-05T07:47:15.666Z,96
2022-12-05T07:48:22.132Z,96
2022-12-05T07:49:29.231Z,96
2022-12-05T07:50:36.343Z,96
2022-12-05T07:51:43.542Z,96
2022-12-05T07:52:50.548Z,95
2022-12-05T07:53:57.144Z,95
2022-12-05T07:55:04.245Z,96
2022-12-05T07:56:11.335Z,95
2022-12-05T07:57:18.504Z,95
2022-12-05T07:58:25.555Z,95
2022-12-05T07:59:32.146Z,96
2022-12-05T08:00:39.217Z,96
2022-12-05T08:01:46.456Z,96
2022-12-05T08:02:53.531Z,96
2022-12-05T08:04:00.608Z,96
2022-12-05T08:05:07.138Z,96
2022-12-05T08:06:14.244Z,96
2022-12-05T08:07:21.414Z,96
2022-12-05T08:08:28.528Z,95
2022-12-05T08:09:35.588Z,96
2022-12-05T08:10:42.190Z,96
2022-12-05T08:11:52.526Z,96
2022-12-05T08:12:56.393Z,96
2022-12-05T08:14:03.475Z,96
2022-12-05T08:15:10.616Z,96
2022-12-05T08:16:17.255Z,96
2022-12-05T08:17:24.450Z,96
2022-12-05T08:18:31.416Z,96
2022-12-05T08:19:38.480Z,96
2022-12-05T08:20:45.604Z,96
2022-12-05T08:21:52.259Z,96
2022-12-05T08:24:06.401Z,96
2022-12-05T08:25:13.492Z,96
2022-12-05T08:26:20.629Z,94
2022-12-05T08:27:27.247Z,94
2022-12-05T08:28:34.435Z,94
2022-12-05T08:29:41.445Z,95
2022-12-05T08:30:48.555Z,95
2022-12-05T08:31:55.676Z,95
2022-12-05T08:33:02.202Z,95
2022-12-05T08:34:09.470Z,95
2022-12-05T08:35:16.439Z,95
2022-12-05T08:36:23.512Z,95
2022-12-05T08:37:30.665Z,95
2022-12-05T08:38:37.201Z,95
2022-12-05T08:39:44.313Z,94
2022-12-05T08:40:51.390Z,94
2022-12-05T08:41:59.272Z,94
2022-12-05T08:43:05.752Z,95
2022-12-05T08:44:12.234Z,94
2022-12-05T08:45:19.294Z,94
2022-12-05T08:46:26.546Z,94
2022-12-05T08:47:33.571Z,95
2022-12-05T08:48:40.662Z,94
2022-12-05T08:49:47.191Z,96
2022-12-05T08:50:54.331Z,96
2022-12-05T08:52:01.445Z,96
2022-12-05T08:53:08.590Z,96
2022-12-05T08:54:15.626Z,96
2022-12-05T08:55:22.239Z,96
2022-12-05T08:56:29.303Z,96
2022-12-05T08:57:36.513Z,96
2022-12-05T08:58:43.658Z,96
2022-12-05T08:59:50.648Z,96
2022-12-05T09:02:04.461Z,96
2022-12-05T09:03:11.448Z,96
2022-12-05T09:04:18.619Z,96
2022-12-05T09:05:28.774Z,96
2022-12-05T09:06:32.261Z,96
2022-12-05T09:07:39.363Z,96
2022-12-05T09:08:45.901Z,96
2022-12-05T09:09:53.629Z,94
2022-12-05T09:11:00.642Z,96
2022-12-05T09:12:07.206Z,95
2022-12-05T09:13:14.420Z,98
2022-12-05T09:14:21.454Z,98
2022-12-05T09:15:28.742Z,95
2022-12-05T09:16:38.370Z,95
2022-12-05T09:17:42.264Z,98
2022-12-05T09:18:49.339Z,98
2022-12-05T09:19:56.452Z,98
2022-12-05T09:21:03.674Z,100
2022-12-05T09:22:10.141Z,100
2022-12-05T09:23:17.236Z,100
2022-12-05T09:24:24.367Z,100
2022-12-05T09:25:31.471Z,100
2022-12-05T09:27:45.177Z,100
2022-12-05T09:28:52.351Z,100
2022-12-05T09:29:59.361Z,100
2022-12-05T09:31:06.540Z,99
2022-12-05T09:32:13.639Z,100
2022-12-05T09:33:20.199Z,100
2022-12-05T09:34:27.250Z,99
2022-12-05T09:35:34.402Z,100
2022-12-05T09:36:41.550Z,100
2022-12-05T09:37:48.572Z,99
2022-12-05T09:38:55.212Z,100
2022-12-05T09:40:02.250Z,100
2022-12-05T09:41:09.384Z,100
2022-12-05T09:42:16.491Z,100
2022-12-05T09:43:23.613Z,100
2022-12-05T09:44:30.217Z,100
2022-12-05T09:45:38.317Z,100
2022-12-05T09:46:44.523Z,100
2022-12-05T09:47:51.518Z,100
2022-12-05T09:48:58.603Z,100
2022-12-05T09:50:05.198Z,99
2022-12-05T09:51:12.321Z,99
2022-12-05T09:52:19.482Z,99
2022-12-05T09:53:26.653Z,99
2022-12-05T09:54:33.607Z,99
2022-12-05T09:55:40.208Z,100
2022-12-05T09:56:47.343Z,100
2022-12-05T09:57:54.442Z,100
2022-12-05T09:59:01.524Z,100
2022-12-05T10:00:08.971Z,100
2022-12-05T10:01:15.255Z,100
2022-12-05T10:02:22.364Z,100
2022-12-05T10:03:29.432Z,100
2022-12-05T10:04:36.623Z,100
2022-12-05T10:05:43.607Z,100
2022-12-05T10:06:50.294Z,100
2022-12-05T10:07:57.385Z,99
2022-12-05T10:09:04.440Z,100
2022-12-05T10:10:15.702Z,100
2022-12-05T10:11:18.630Z,100
2022-12-05T10:12:25.268Z,100
2022-12-05T10:13:32.359Z,100
2022-12-05T10:14:39.432Z,100
2022-12-05T10:15:46.656Z,100
2022-12-05T10:16:53.666Z,100
2022-12-05T10:18:00.265Z,100
2022-12-05T10:19:07.327Z,100
2022-12-05T10:20:14.456Z,100
2022-12-05T10:21:21.565Z,100
2022-12-05T10:22:28.684Z,100
2022-12-05T10:23:56.452Z,100
2022-12-05T10:24:42.374Z,100
2022-12-05T10:25:49.451Z,100
2022-12-05T10:26:56.622Z,100
2022-12-05T10:28:03.682Z,100
2022-12-05T10:32:31.634Z,100
2022-12-05T10:33:38.636Z,100
2022-12-05T10:34:45.249Z,100
2022-12-05T10:35:52.381Z,100
2022-12-05T10:36:59.434Z,100
2022-12-05T10:38:06.562Z,100
2022-12-05T10:39:13.699Z,100
2022-12-05T10:40:20.333Z,100
2022-12-05T10:41:27.335Z,100
2022-12-05T10:42:34.580Z,100
2022-12-05T10:43:41.579Z,100
2022-12-05T10:44:48.656Z,100
2022-12-05T10:45:55.279Z,100
2022-12-05T10:47:02.520Z,100
2022-12-05T10:48:09.448Z,100
2022-12-05T10:49:17.102Z,100
2022-12-05T10:50:23.699Z,100
2022-12-05T10:51:34.227Z,100
2022-12-05T10:52:37.374Z,100
2022-12-05T10:53:44.488Z,100
2022-12-05T10:54:51.602Z,100
2022-12-05T10:56:29.265Z,100
2022-12-05T10:57:05.341Z,99
2022-12-05T10:58:17.108Z,99
2022-12-05T10:59:19.487Z,100
2022-12-05T11:00:26.580Z,100
2022-12-05T11:01:33.833Z,100
2022-12-05T11:02:40.389Z,100
2022-12-05T11:03:47.408Z,100
2022-12-05T11:04:54.603Z,100
2022-12-05T11:06:01.623Z,100
2022-12-05T11:07:08.721Z,100
2022-12-05T11:08:15.295Z,100
2022-12-05T11:09:22.437Z,100
2022-12-05T11:10:29.519Z,99
2022-12-05T11:11:36.595Z,99
2022-12-05T11:13:50.403Z,100
2022-12-05T11:14:57.646Z,100
2022-12-05T11:16:04.559Z,100
2022-12-05T11:17:11.701Z,100
2022-12-05T11:18:18.763Z,100
2022-12-05T11:19:25.317Z,100
2022-12-05T11:20:32.439Z,99
2022-12-05T11:21:39.533Z,100
2022-12-05T11:22:48.820Z,99
2022-12-05T11:23:53.765Z,99
2022-12-05T11:25:00.649Z,99
2022-12-05T11:26:07.422Z,100
2022-12-05T11:27:14.599Z,100
2022-12-05T11:28:21.647Z,100
2022-12-05T11:29:28.723Z,100
2022-12-05T11:30:35.324Z,99
2022-12-05T11:31:42.537Z,100
2022-12-05T11:32:49.524Z,99
2022-12-05T11:35:03.759Z,99
2022-12-05T11:36:10.357Z,99
2022-12-05T11:37:17.472Z,99
2022-12-05T11:38:24.563Z,99
2022-12-05T11:39:31.658Z,99
2022-12-05T11:40:38.974Z,99
2022-12-05T11:41:45.446Z,99
2022-12-05T11:42:52.454Z,99
2022-12-05T11:43:59.554Z,99
2022-12-05T11:45:06.652Z,99
2022-12-05T11:46:13.323Z,99
2022-12-05T11:47:20.447Z,99
2022-12-05T11:48:27.448Z,99
2022-12-05T11:49:34.564Z,99
2022-12-05T11:50:41.680Z,99
2022-12-05T11:51:48.306Z,99
2022-12-05T11:52:55.892Z,99
2022-12-05T11:55:09.655Z,99
2022-12-05T11:56:16.642Z,99
2022-12-05T11:58:30.466Z,99
2022-12-05T11:59:37.435Z,99
2022-12-05T12:00:44.610Z,99
2022-12-05T12:01:51.898Z,99
2022-12-05T12:02:58.296Z,99
2022-12-05T12:04:05.402Z,99
2022-12-05T12:05:12.514Z,99
2022-12-05T12:06:19.580Z,99
2022-12-05T12:07:26.683Z,99
2022-12-05T12:08:33.293Z,99
2022-12-05T12:09:40.363Z,99
2022-12-05T12:10:47.496Z,99
2022-12-05T12:11:54.639Z,99
2022-12-05T12:13:01.720Z,99
2022-12-05T12:14:08.286Z,99
2022-12-05T12:15:15.402Z,99
2022-12-05T12:16:22.575Z,99
2022-12-05T12:17:29.661Z,99
2022-12-05T12:18:36.729Z,99
2022-12-05T12:19:43.313Z,99
2022-12-05T12:20:50.482Z,99
2022-12-05T12:21:57.520Z,99
2022-12-05T12:23:04.608Z,99
2022-12-05T12:24:11.750Z,99
2022-12-05T12:25:18.266Z,99
2022-12-05T12:26:25.410Z,99
2022-12-05T12:27:32.590Z,99
2022-12-05T12:28:39.612Z,99
2022-12-05T12:29:46.703Z,99
2022-12-05T12:30:53.326Z,99
2022-12-05T12:32:00.565Z,99
2022-12-05T12:33:07.501Z,99
2022-12-05T12:34:14.646Z,99
2022-12-05T12:36:28.302Z,99
2022-12-05T12:38:46.844Z,99
2022-12-05T12:39:49.616Z,99
2022-12-05T12:40:56.722Z,99
2022-12-05T12:42:03.451Z,99
2022-12-05T12:43:21.224Z,99
2022-12-05T12:44:17.501Z,99
2022-12-05T12:45:24.662Z,99
2022-12-05T12:46:31.833Z,99
2022-12-05T12:47:38.382Z,99
2022-12-05T12:48:45.466Z,99
2022-12-05T12:49:52.623Z,99
2022-12-05T12:50:59.664Z,99
2022-12-05T12:52:06.781Z,99
2022-12-05T12:53:13.342Z,99
2022-12-05T12:54:40.097Z,99
2022-12-05T12:55:27.568Z,99
2022-12-05T12:56:35.204Z,99
2022-12-05T12:57:41.941Z,99
2022-12-05T12:58:48.320Z,99
2022-12-05T12:59:55.691Z,99
2022-12-05T13:01:02.671Z,99
2022-12-05T13:02:09.869Z,99
2022-12-05T13:03:16.832Z,99
2022-12-05T13:04:23.344Z,99
2022-12-05T13:05:30.488Z,99
2022-12-05T13:06:37.534Z,99
2022-12-05T13:07:44.810Z,99
2022-12-05T13:08:51.833Z,99
2022-12-05T13:09:58.374Z,99
2022-12-05T13:11:05.496Z,99
2022-12-05T13:12:12.709Z,99
2022-12-05T13:13:19.656Z,99
2022-12-05T13:14:26.790Z,99
2022-12-05T13:15:33.374Z,99
2022-12-05T13:17:47.669Z,99
2022-12-05T13:18:54.761Z,99
2022-12-05T13:20:01.849Z,99
2022-12-05T13:21:08.396Z,99
2022-12-05T13:22:15.590Z,99
2022-12-05T13:23:23.042Z,99
2022-12-05T13:24:29.748Z,99
2022-12-05T13:26:43.432Z,99
2022-12-05T13:27:50.636Z,99
2022-12-05T13:28:57.597Z,99
2022-12-05T13:30:09.357Z,99
2022-12-05T13:31:11.849Z,99
2022-12-05T13:32:18.430Z,99
2022-12-05T13:33:25.496Z,99
2022-12-05T13:34:32.617Z,99
2022-12-05T13:35:39.701Z,99
2022-12-05T13:36:46.785Z,99
2022-12-05T13:37:53.459Z,99
2022-12-05T13:39:00.523Z,99
2022-12-05T13:40:07.642Z,99
2022-12-05T13:42:21.357Z,99
2022-12-05T13:43:28.373Z,99
2022-12-05T13:44:35.556Z,99
2022-12-05T13:45:43.827Z,99
2022-12-05T13:46:49.717Z,99
2022-12-05T13:47:56.304Z,99
2022-12-05T13:49:06.814Z,99
2022-12-05T13:50:10.549Z,99
2022-12-05T13:51:17.619Z,99
2022-12-05T13:52:24.862Z,99
2022-12-05T13:53:31.329Z,99
2022-12-05T13:54:38.394Z,99
2022-12-05T13:55:45.609Z,99
2022-12-05T13:56:52.707Z,99
2022-12-05T13:59:06.290Z,99
2022-12-05T14:00:13.961Z,99
2022-12-05T14:01:20.595Z,99
2022-12-05T14:02:27.746Z,99
2022-12-05T14:03:34.791Z,99
2022-12-05T14:04:41.336Z,99
2022-12-05T14:05:48.438Z,99
2022-12-05T14:06:55.591Z,99
2022-12-05T14:08:04.036Z,99
2022-12-05T14:09:09.780Z,99
2022-12-05T14:10:16.303Z,99
2022-12-05T14:11:23.468Z,99
2022-12-05T14:12:30.613Z,99
2022-12-05T14:13:37.690Z,99
2022-12-05T14:14:44.779Z,99
2022-12-05T14:15:51.368Z,99
2022-12-05T14:16:58.537Z,99
2022-12-05T14:18:05.561Z,99
2022-12-05T14:19:12.700Z,99
2022-12-05T14:20:19.771Z,99
2022-12-05T14:21:26.516Z,99
2022-12-05T14:22:33.561Z,99
2022-12-05T14:23:40.594Z,99
2022-12-05T14:24:47.662Z,99
2022-12-05T14:25:57.927Z,99
2022-12-05T14:27:01.416Z,99
2022-12-05T14:28:08.465Z,99
2022-12-05T14:29:15.583Z,99
2022-12-05T14:30:22.746Z,99
2022-12-05T14:31:29.765Z,99
2022-12-05T14:32:36.615Z,99
2022-12-05T14:33:43.477Z,99
2022-12-05T14:34:50.574Z,99
2022-12-05T14:35:57.712Z,99
2022-12-05T14:37:04.851Z,99
2022-12-05T14:38:11.399Z,99
2022-12-05T14:40:25.587Z,99
2022-12-05T14:41:32.740Z,99
2022-12-05T14:42:39.808Z,99
2022-12-05T14:43:46.384Z,99
2022-12-05T14:46:00.663Z,99
2022-12-05T14:47:07.789Z,99
2022-12-05T14:48:14.857Z,99
2022-12-05T14:49:21.403Z,99
2022-12-05T14:50:28.499Z,99
2022-12-05T14:51:35.600Z,99
2022-12-05T14:52:42.827Z,99
2022-12-05T14:54:56.442Z,99
2022-12-05T14:56:03.513Z,99
2022-12-05T14:57:10.677Z,99
2022-12-05T14:58:17.808Z,99
2022-12-05T14:59:24.867Z,99
2022-12-05T15:00:31.411Z,99
2022-12-05T15:01:38.681Z,99
2022-12-05T15:02:45.896Z,99
2022-12-05T15:03:53.251Z,99
2022-12-05T15:04:59.805Z,99
2022-12-05T15:06:06.415Z,99
2022-12-05T15:07:13.736Z,99
2022-12-05T15:08:20.769Z,99
2022-12-05T15:09:36.890Z,99
2022-12-05T15:10:34.945Z,99
2022-12-05T15:11:41.440Z,99
2022-12-05T15:12:48.592Z,99
2022-12-05T15:13:55.713Z,99
2022-12-05T15:15:02.800Z,99
2022-12-05T15:16:10.017Z,99
2022-12-05T15:17:16.564Z,99
2022-12-05T15:18:23.619Z,99
2022-12-05T15:19:30.781Z,99
2022-12-05T15:21:44.433Z,99
2022-12-05T15:22:51.569Z,99
2022-12-05T15:23:58.505Z,99
2022-12-05T15:25:06.033Z,99
2022-12-05T15:26:45.157Z,99
2022-12-05T15:27:19.437Z,99
2022-12-05T15:28:26.447Z,99
2022-12-05T15:29:33.712Z,99
2022-12-05T15:30:40.752Z,99
2022-12-05T15:31:47.821Z,99
2022-12-05T15:32:59.204Z,99
2022-12-05T15:34:01.463Z,99
2022-12-05T15:35:08.629Z,99
2022-12-05T15:36:15.738Z,99
2022-12-05T15:37:22.883Z,99
2022-12-05T15:38:29.329Z,99
2022-12-05T15:39:36.555Z,99
2022-12-05T15:40:43.645Z,99
2022-12-05T15:41:50.773Z,99
2022-12-05T15:42:57.947Z,99
2022-12-05T15:44:04.417Z,99
2022-12-05T15:45:11.587Z,99
2022-12-05T15:46:18.637Z,99
2022-12-05T15:47:25.751Z,99
2022-12-05T15:49:39.489Z,99
2022-12-05T15:50:46.578Z,99
2022-12-05T15:51:53.743Z,99
2022-12-05T15:53:00.833Z,99
2022-12-05T15:54:07.896Z,99
2022-12-05T15:55:14.594Z,99
2022-12-05T15:56:21.499Z,99
2022-12-05T15:57:28.804Z,99
2022-12-05T15:58:35.786Z,99
2022-12-05T15:59:42.794Z,99
2022-12-05T16:00:49.486Z,99
2022-12-05T16:03:03.997Z,99
2022-12-05T16:04:10.772Z,99
2022-12-05T16:05:17.844Z,99
2022-12-05T16:06:24.478Z,99
2022-12-05T16:07:32.299Z,99
2022-12-05T16:08:38.567Z,99
2022-12-05T16:09:45.700Z,99
2022-12-05T16:10:52.856Z,99
2022-12-05T16:11:59.386Z,99
2022-12-05T16:13:06.598Z,99
2022-12-05T16:14:21.567Z,99
2022-12-05T16:15:20.786Z,99
2022-12-05T16:16:27.862Z,99
2022-12-05T16:17:34.514Z,99
2022-12-05T16:18:41.519Z,99
2022-12-05T16:19:48.651Z,99
2022-12-05T16:20:55.728Z,99
2022-12-05T16:23:09.557Z,99
2022-12-05T16:24:16.673Z,99
2022-12-05T16:25:23.714Z,99
2022-12-05T16:26:31.211Z,99
2022-12-05T16:27:38.064Z,99
2022-12-05T16:28:44.560Z,99
2022-12-05T16:29:51.625Z,99
2022-12-05T16:30:58.771Z,99
2022-12-05T16:32:05.875Z,99
2022-12-05T16:33:12.834Z,99
2022-12-05T16:34:19.631Z,99
2022-12-05T16:35:26.713Z,99
2022-12-05T16:36:33.764Z,99
2022-12-05T16:37:40.859Z,99
2022-12-05T16:38:47.958Z,99
2022-12-05T16:39:54.564Z,99
2022-12-05T16:41:01.700Z,99
2022-12-05T16:42:08.709Z,99